createdAt,value
2022-07-28T00:01:34.214Z,40.1
2022-07-28T00:16:36.762Z,40.2
2022-07-28T00:31:37.791Z,40.2
2022-07-28T00:46:38.082Z,40.2
2022-07-28T01:01:38.506Z,40.3
2022-07-28T01:16:39.807Z,40.4
2022-07-28T01:31:40.250Z,39.9
2022-07-28T01:46:42.920Z,40.4
2022-07-28T02:01:43.961Z,40
2022-07-28T02:16:43.582Z,40.4
2022-07-28T02:31:44.565Z,40
2022-07-28T02:46:45.424Z,40.4
2022-07-28T03:03:06.940Z,40.1
2022-07-28T03:18:07.402Z,39.9
2022-07-28T03:33:08.537Z,39.8
2022-07-28T03:48:08.335Z,40.2
2022-07-28T04:03:44.457Z,40.1
2022-07-28T04:18:10.806Z,40.1
2022-07-28T04:33:12.801Z,40.6
2022-07-28T04:48:12.446Z,40
2022-07-28T05:03:13.708Z,40.3
2022-07-28T05:18:34.194Z,40.9
2022-07-28T05:33:15.744Z,43.3
2022-07-28T05:48:16.766Z,40.5
2022-07-28T06:03:17.995Z,40.8
2022-07-28T06:18:18.785Z,40.5
2022-07-28T06:33:19.520Z,40.9
2022-07-28T06:48:23.567Z,40.7
2022-07-28T07:03:22.474Z,40.7
2022-07-28T07:18:23.510Z,40.7
2022-07-28T07:33:23.401Z,40.1
2022-07-28T07:48:25.678Z,40.6
2022-07-28T08:03:27.339Z,40.5
2022-07-28T08:18:27.412Z,45.1
2022-07-28T08:33:27.575Z,46.4
2022-07-28T08:48:30.730Z,46.8
2022-07-28T09:03:04.798Z,26
2022-07-28T09:18:04.747Z,25.3
2022-07-28T09:33:08.450Z,24.1
2022-07-28T09:48:21.023Z,29.2
2022-07-28T10:03:08.008Z,26.1
2022-07-28T10:18:08.523Z,24.8
2022-07-28T10:33:09.975Z,26.3
2022-07-28T10:48:11.484Z,24.9
2022-07-28T11:03:17.389Z,24.2
2022-07-28T11:18:12.565Z,26.7
2022-07-28T11:33:15.913Z,27.2
2022-07-28T11:48:13.525Z,26.2
2022-07-28T12:45:15.820Z,40.4
2022-07-28T13:00:16.408Z,40
2022-07-28T13:15:18.985Z,43.1
2022-07-28T14:00:24.794Z,45.9
2022-07-28T14:15:22.361Z,49.9
2022-07-28T14:30:22.515Z,49.8
2022-07-28T14:45:24.977Z,51.8
2022-07-28T15:03:06.343Z,25.7
2022-07-28T15:18:07.623Z,25.7
2022-07-28T15:33:08.215Z,26
2022-07-28T15:48:10.318Z,26.1
2022-07-28T16:18:11.402Z,25.9
2022-07-28T16:33:11.784Z,26
2022-07-28T16:48:18.673Z,25.5
2022-07-28T17:03:13.995Z,26.3
2022-07-28T17:18:20.028Z,25.8
2022-07-28T17:33:33.662Z,26.2
2022-07-28T17:48:20.943Z,25.8
2022-07-28T18:03:22.336Z,25.9
2022-07-28T18:18:20.179Z,25.9
2022-07-28T18:33:20.974Z,25.3
2022-07-28T18:48:22.479Z,25.9
2022-07-28T19:03:23.324Z,25.9
2022-07-28T19:18:23.902Z,25.7
2022-07-28T19:33:25.073Z,25.5
2022-07-28T19:48:25.461Z,26.5
2022-07-28T20:04:05.516Z,25.8
2022-07-28T20:18:27.583Z,25.2
2022-07-28T20:33:29.201Z,25.7
2022-07-28T20:48:29.782Z,26
2022-07-28T21:03:03.349Z,25.2
2022-07-28T21:18:03.377Z,25.9
2022-07-28T21:33:04.953Z,25.6
2022-07-28T21:48:06.068Z,25.3
2022-07-28T22:03:10.922Z,26.2
2022-07-28T22:18:16.324Z,25.8
2022-07-28T22:33:08.856Z,25.7
2022-07-28T22:48:14.283Z,25.6
2022-07-28T23:03:15.799Z,26.1
2022-07-28T23:18:11.883Z,25.9
2022-07-28T23:33:57.597Z,26
2022-07-28T23:48:13.070Z,26.3
